CEDT2: Cedar Raws nr Fritch 7SW

Data processed at Fri Dec 08 2017 23:36


All information presented herein is the property of the government of the United States of America and may be revised or deleted at any time without prior notice.
Dissemination of this information without the expressed written consent of the Public Affairs Office, Tulsa District U.S. Army Corps of Engineers is strictly prohibited.
These data are gathered electronically and, as presented, have not undergone any form of quality control. These data are not guaranteed to be valid or correct.
Go to home page.
Go to station list.

Downstream station:


Previous Day
Next Day
Current Day
    
SHEF ID:       CEDT2     Cedar Raws nr Fritch 7SW
STATION TYPE:  

               PRECIP  AIR-TEMP  WIND-DIRWIND-SPEED REL-HUMID SOLAR-RAD  BAT-LOAD
                   in         F       deg       mph         %      W/m2      volt
              Ccp-Rev   Ccp-Rev   Ccp-Rev   Ccp-Rev   Ccp-Rev   Ccp-Rev   Ccp-Rev
(US/Central)
12/06 00:00      0.00     27.00    255.00      4.00     61.00      0.00     10.80
12/06 01:00      0.00     25.00    221.00      3.00     80.00      0.00     10.70
12/06 02:00      0.00     24.00    242.00      4.00     79.00      0.00     10.70
12/06 03:00      0.00     22.00    245.00      2.00     83.00      0.00     10.70
12/06 04:00      0.00     22.00    225.00      4.00     75.00      0.00     10.60
12/06 05:00      0.00     21.00    250.00      4.00     81.00      0.00     10.60
12/06 06:00      0.00     22.00    252.00      3.00     87.00      0.00     10.60
12/06 07:00      0.00     22.00    282.00      1.00     78.00      0.00     10.60
12/06 08:00      0.00     27.00    329.00      3.00     69.00     41.00     11.30
12/06 09:00      0.00     35.00     67.00      2.00     44.00    192.00     13.10
12/06 10:00      0.00     40.00     10.00      5.00     36.00    338.00     13.50
12/06 11:00      0.00     46.00     47.00     14.00     25.00    451.00     13.30
12/06 12:00      0.00     48.00     41.00     13.00     23.00    512.00     13.30
12/06 13:00      0.00     49.00     39.00     10.00     23.00    516.00     12.90
12/06 14:00      0.00     49.00     18.00     13.00     23.00    463.00     12.40
12/06 15:00      0.00     48.00     19.00     11.00     24.00    357.00     12.10
12/06 16:00      0.00     46.00      8.00     12.00     25.00    215.00     11.80
12/06 17:00      0.00     42.00     31.00      3.00     30.00     58.00     11.40
12/06 18:00      0.00     38.00     73.00      3.00     32.00      1.00     11.20
12/06 19:00      0.00     36.00      4.00      0.00     47.00      0.00     11.10
12/06 20:00      0.00     33.00    264.00      3.00     59.00      0.00     11.00
12/06 21:00      0.00     31.00    245.00      2.00     56.00      0.00     10.90
12/06 22:00      0.00     30.00     93.00      1.00     49.00      0.00     10.90
12/06 23:00      0.00     28.00     28.00      2.00     45.00      0.00     10.90